FW1136 Weather Reports


Display with metric or nautical units.
time (UTC)temp
F
wind
direction
speed
MPH
gust
MPH
rain 1hr
in
rain 24hr
in
rain mn
in
humidity
%
barometer
mb
20260508202515 76 0.0 0.0 0.00 0.00 0.00 26 1007.9
20260508201515 75 0.0 0.0 0.00 0.00 0.00 26 1007.9
20260508200515 74 0.0 0.0 0.00 0.00 0.00 37 1007.9
20260508195517 73 0.0 0.0 0.00 0.00 0.00 33 1007.9
20260508194517 76 0.0 0.0 0.00 0.00 0.00 28 1008.0
20260508193517 75 0.0 1.0 0.00 0.00 0.00 29 1008.0
20260508192517 74 0.0 0.0 0.00 0.00 0.00 33 1008.1
20260508191537 74 0.0 1.0 0.00 0.00 0.00 31 1008.1
20260508190517 74 0.0 0.0 0.00 0.00 0.00 34 1008.1
20260508185517 73 0.0 6.0 0.00 0.00 0.00 33 1008.2
20260508184557 74 0.0 0.0 0.00 0.00 0.00 33 1008.3
20260508183517 74 0.0 0.0 0.00 0.00 0.00 33 1008.5
20260508182517 74 0.0 0.0 0.00 0.00 0.00 35 1008.6
20260508181517 73 0.0 1.0 0.00 0.00 0.00 37 1008.6
20260508180517 73 0.0 0.0 0.00 0.00 0.00 40 1008.6
20260508175517 72 0.0 0.0 0.00 0.00 0.00 36 1008.7
20260508174517 71 0.0 1.0 0.00 0.00 0.00 37 1008.8
20260508173517 72 0.0 1.0 0.00 0.00 0.00 32 1008.7
20260508172517 73 0.0 2.0 0.00 0.00 0.00 36 1008.8
20260508171517 72 0.0 0.0 0.00 0.00 0.00 36 1008.8
20260508170557 71 0.0 0.0 0.00 0.00 0.00 32 1008.8
20260508165517 72 0.0 0.0 0.00 0.00 0.00 36 1008.8
20260508164517 70 0.0 0.0 0.00 0.00 0.00 36 1008.7
20260508163516 68 0.0 0.0 0.00 0.00 0.00 39 1008.7
20260508162517 66 0.0 0.0 0.00 0.00 0.00 45 1008.7
20260508161517 65 0.0 0.0 0.00 0.00 0.00 46 1008.7
20260508160516 64 0.0 0.0 0.00 0.00 0.00 47 1008.6
20260508155516 63 0.0 0.0 0.00 0.00 0.00 47 1008.6
20260508154516 62 0.0 0.0 0.00 0.00 0.00 49 1008.6
20260508153516 61 0.0 0.0 0.00 0.00 0.00 51 1008.5
20260508152536 59 0.0 0.0 0.00 0.00 0.00 51 1008.5
20260508151516 58 0.0 0.0 0.00 0.00 0.00 54 1008.5
20260508150516 57 0.0 0.0 0.00 0.00 0.00 55 1008.4
20260508145517 57 0.0 0.0 0.00 0.00 0.00 55 1008.2
20260508144516 57 0.0 0.0 0.00 0.00 0.00 56 1008.1
20260508143516 57 0.0 0.0 0.00 0.00 0.00 55 1008.0
20260508142516 56 0.0 0.0 0.00 0.00 0.00 58 1008.0
20260508141516 54 0.0 0.0 0.00 0.00 0.00 57 1007.9
20260508140516 56 0.0 0.0 0.00 0.00 0.00 52 1007.8
20260508135516 55 0.0 0.0 0.00 0.00 0.00 52 1007.8
20260508134516 52 0.0 0.0 0.00 0.00 0.00 55 1007.7
20260508133516 51 0.0 0.0 0.00 0.00 0.00 54 1007.7
20260508132516 52 0.0 0.0 0.00 0.00 0.00 52 1007.6
20260508131516 53 0.0 0.0 0.00 0.00 0.00 49 1007.4
20260508130516 54 0.0 0.0 0.00 0.00 0.00 47 1007.4
20260508125516 52 0.0 0.0 0.00 0.00 0.00 49 1007.3
20260508124516 52 0.0 0.0 0.00 0.00 0.00 51 1007.1
20260508123516 52 0.0 0.0 0.00 0.00 0.00 51 1007.0
20260508122516 52 0.0 0.0 0.00 0.00 0.00 50 1007.0
20260508121516 50 0.0 0.0 0.00 0.00 0.00 54 1006.9
20260508120516 51 0.0 0.0 0.00 0.00 0.00 52 1006.7
20260508115516 52 0.0 0.0 0.00 0.00 0.00 50 1006.6
20260508114516 53 0.0 0.0 0.00 0.00 0.00 48 1006.5
20260508113516 51 0.0 0.0 0.00 0.00 0.00 51 1006.5
20260508112536 51 0.0 0.0 0.00 0.00 0.00 51 1006.5
20260508111536 52 0.0 0.0 0.00 0.00 0.00 51 1006.6
20260508110516 52 0.0 0.0 0.00 0.00 0.00 49 1006.5
20260508105516 53 0.0 0.0 0.00 0.00 0.00 50 1006.4
20260508104516 55 0.0 0.0 0.00 0.00 0.00 43 1006.4
20260508103516 54 0.0 0.0 0.00 0.00 0.00 45 1006.3
20260508102516 55 0.0 0.0 0.00 0.00 0.00 45 1006.2
20260508101536 55 0.0 0.0 0.00 0.00 0.00 46 1006.2
20260508100515 54 0.0 0.0 0.00 0.00 0.00 48 1006.2
20260508095015 58 0.0 0.0 0.00 0.00 0.00 39 1006.3
20260508094016 56 0.0 0.0 0.00 0.00 0.00 43 1006.3
20260508093016 55 0.0 0.0 0.00 0.00 0.00 46 1006.3
20260508092015 56 0.0 0.0 0.00 0.00 0.00 45 1006.2
20260508091016 56 0.0 0.0 0.00 0.00 0.00 46 1006.2
20260508090015 55 0.0 0.0 0.00 0.00 0.00 47 1006.3
20260508085015 56 0.0 0.0 0.00 0.00 0.00 47 1006.3
20260508084016 56 0.0 0.0 0.00 0.00 0.00 46 1006.2
20260508083055 56 0.0 0.0 0.00 0.00 0.00 46 1006.3
20260508082015 57 0.0 0.0 0.00 0.00 0.00 45 1006.2
20260508081015 59 0.0 0.0 0.00 0.00 0.00 42 1006.3
20260508080035 59 0.0 0.0 0.00 0.00 0.00 40 1006.3
20260508075015 57 0.0 0.0 0.00 0.00 0.00 47 1006.2
20260508074015 58 0.0 0.0 0.00 0.00 0.00 46 1006.2
20260508073015 60 0.0 0.0 0.00 0.00 0.00 42 1006.3
20260508072017 58 0.0 0.0 0.00 0.00 0.00 45 1006.3
20260508071017 58 0.0 0.0 0.00 0.00 0.00 46 1006.2
20260508070017 60 0.0 0.0 0.00 0.00 0.00 41 1006.2
20260508065017 61 0.0 0.0 0.00 0.00 0.00 41 1006.2
20260508064017 60 0.0 0.0 0.00 0.00 0.00 43 1006.1
20260508063017 59 0.0 0.0 0.00 0.00 0.00 44 1006.0
20260508062017 61 0.0 0.0 0.00 0.00 0.00 40 1005.9
20260508061017 62 0.0 0.0 0.00 0.00 0.00 39 1005.9
20260508060015 62 0.0 0.0 0.00 0.00 0.00 39 1005.9
20260508055017 62 0.0 0.0 0.00 0.00 0.00 39 1005.8
20260508054016 62 0.0 0.0 0.00 0.00 0.00 39 1005.9
20260508053016 62 0.0 0.0 0.00 0.00 0.00 39 1005.8
20260508052016 61 0.0 0.0 0.00 0.00 0.00 41 1005.9
20260508051017 61 0.0 0.0 0.00 0.00 0.00 40 1005.7
20260508050017 63 0.0 0.0 0.00 0.00 0.00 37 1005.7
20260508045016 62 0.0 0.0 0.00 0.00 0.00 40 1005.7
20260508044017 62 0.0 0.0 0.00 0.00 0.00 38 1005.7
20260508043036 63 0.0 0.0 0.00 0.00 0.00 37 1005.7
20260508042016 63 0.0 0.0 0.00 0.00 0.00 39 1005.7
20260508041016 65 0.0 0.0 0.00 0.00 0.00 36 1005.6
20260508040016 64 0.0 0.0 0.00 0.00 0.00 37 1005.6
20260508035016 64 0.0 0.0 0.00 0.00 0.00 37 1005.6
20260508034016 64 0.0 0.0 0.00 0.00 0.00 37 1005.3
20260508033017 65 0.0 0.0 0.00 0.00 0.00 35 1005.2
20260508032016 65 0.0 0.0 0.00 0.00 0.00 36 1005.1
20260508031016 65 0.0 0.0 0.00 0.00 0.00 35 1005.0
20260508030016 65 0.0 0.0 0.00 0.00 0.00 35 1005.0
20260508025016 66 0.0 0.0 0.00 0.00 0.00 35 1004.9
20260508024016 66 0.0 0.0 0.00 0.00 0.00 35 1004.9
20260508023016 66 0.0 0.0 0.00 0.00 0.00 35 1004.9
20260508022016 67 0.0 0.0 0.00 0.00 0.00 35 1004.8
20260508021036 67 0.0 0.0 0.00 0.00 0.00 35 1004.8
20260508020036 68 0.0 0.0 0.00 0.00 0.00 35 1004.8
20260508015016 68 0.0 0.0 0.00 0.00 0.00 35 1004.8
20260508014036 69 0.0 0.0 0.00 0.00 0.00 37 1004.8
20260508013016 69 0.0 0.0 0.00 0.00 0.00 37 1004.8
20260508012016 69 0.0 0.0 0.00 0.00 0.00 34 1004.8
20260508011036 70 0.0 0.0 0.00 0.00 0.00 31 1004.9
20260508010016 70 0.0 0.0 0.00 0.00 0.00 33 1005.0
20260508005036 70 0.0 0.0 0.00 0.00 0.00 32 1004.9
20260508004016 70 0.0 0.0 0.00 0.00 0.00 32 1005.0
20260508003016 70 0.0 0.0 0.00 0.00 0.00 32 1004.8
20260508002016 70 0.0 0.0 0.00 0.00 0.00 31 1004.9
20260508001016 71 0.0 0.0 0.00 0.00 0.00 33 1005.2
20260508000016 71 0.0 0.0 0.00 0.00 0.00 33 1005.5
20260507235016 71 0.0 0.0 0.00 0.00 0.00 31 1005.5
20260507234016 72 0.0 0.0 0.00 0.00 0.00 30 1005.6
20260507233016 72 0.0 0.0 0.00 0.00 0.00 31 1005.7
20260507232016 72 0.0 0.0 0.00 0.00 0.00 32 1005.7
20260507231015 73 0.0 0.0 0.00 0.00 0.00 31 1005.8
20260507230015 72 0.0 0.0 0.00 0.00 0.00 30 1006.0
20260507225016 70 0.0 0.0 0.00 0.00 0.00 33 1006.3
20260507224015 71 0.0 0.0 0.00 0.00 0.00 32 1006.4
20260507223015 72 0.0 0.0 0.00 0.00 0.00 34 1006.6
20260507222016 70 0.0 0.0 0.00 0.00 0.00 34 1006.7
20260507221015 70 0.0 0.0 0.00 0.00 0.00 34 1006.7
20260507220015 70 0.0 0.0 0.00 0.00 0.00 32 1006.8
20260507215016 71 0.0 0.0 0.00 0.00 0.00 34 1006.9
20260507214015 71 0.0 0.0 0.00 0.00 0.00 36 1007.0
20260507213015 71 0.0 0.0 0.00 0.00 0.00 32 1007.1
20260507212016 72 0.0 0.0 0.00 0.00 0.00 33 1007.2
20260507211035 73 0.0 0.0 0.00 0.00 0.00 33 1007.3
20260507210015 72 0.0 0.0 0.00 0.00 0.00 31 1007.5
20260507205015 73 0.0 0.0 0.00 0.00 0.00 31 1007.5
20260507204035 73 0.0 1.0 0.00 0.00 0.00 28 1007.6